Lakewood Club, Michigan
Current Conditions -  °F | °C
As of 12:35 AM on Monday 20 Oct 2014 (Local Time) from KFFX Reporting Station
Moderate Rain Moderate Rain  
Wind Chill:   Ceiling: 4800
Heat Index: 10°   Visibility: 10mi
Dew Point:   Wind: 7mph
Humidity: 92%   Direction: 200°SSW
Pressure: 29.86"   Gusts: NA
Location:  43.3636°N, 86.1512°W
Report Text: KFFX 200435Z AUTO 20006KT 10SM RA SCT022 OVC048 10/09 A2986 RMK AO2 T00980086
Loading
Personal Weather Stations






























Interactive Weather Map
Tropical Storm Tracking
New forecast layout! Learn more

10-Day Weather Forecast

Advertisements
Track Severe Weather on mobile